sensor_id;sensor_type;location;lat;lon;timestamp;temperature;humidity
40289;DHT22;28991;52.028;5.526;2023-09-30T00:00:57;22.40;66.60
40289;DHT22;28991;52.028;5.526;2023-09-30T00:03:23;22.40;67.20
40289;DHT22;28991;52.028;5.526;2023-09-30T00:05:48;22.40;66.60
40289;DHT22;28991;52.028;5.526;2023-09-30T00:08:14;22.30;66.50
40289;DHT22;28991;52.028;5.526;2023-09-30T00:10:40;22.40;66.50
40289;DHT22;28991;52.028;5.526;2023-09-30T00:13:06;22.40;66.60
40289;DHT22;28991;52.028;5.526;2023-09-30T00:15:32;22.40;66.60
40289;DHT22;28991;52.028;5.526;2023-09-30T00:17:58;22.40;66.60
40289;DHT22;28991;52.028;5.526;2023-09-30T00:20:24;22.40;66.50
40289;DHT22;28991;52.028;5.526;2023-09-30T00:22:50;22.30;66.50
40289;DHT22;28991;52.028;5.526;2023-09-30T00:25:15;22.40;66.50
40289;DHT22;28991;52.028;5.526;2023-09-30T00:27:41;22.30;66.50
40289;DHT22;28991;52.028;5.526;2023-09-30T00:30:07;22.40;66.50
40289;DHT22;28991;52.028;5.526;2023-09-30T00:32:33;22.30;66.40
40289;DHT22;28991;52.028;5.526;2023-09-30T00:35:01;22.40;66.50
40289;DHT22;28991;52.028;5.526;2023-09-30T00:37:26;22.30;66.40
40289;DHT22;28991;52.028;5.526;2023-09-30T00:39:52;22.30;66.40
40289;DHT22;28991;52.028;5.526;2023-09-30T00:42:18;22.30;66.40
40289;DHT22;28991;52.028;5.526;2023-09-30T00:44:46;22.40;66.50
40289;DHT22;28991;52.028;5.526;2023-09-30T00:47:12;22.40;66.40
40289;DHT22;28991;52.028;5.526;2023-09-30T00:49:38;22.30;66.40
40289;DHT22;28991;52.028;5.526;2023-09-30T00:52:04;22.30;66.40
40289;DHT22;28991;52.028;5.526;2023-09-30T00:54:30;22.30;66.40
40289;DHT22;28991;52.028;5.526;2023-09-30T00:56:57;22.40;66.40
40289;DHT22;28991;52.028;5.526;2023-09-30T00:59:23;22.30;66.30
40289;DHT22;28991;52.028;5.526;2023-09-30T01:01:52;22.30;66.30
40289;DHT22;28991;52.028;5.526;2023-09-30T01:04:18;22.30;66.30
40289;DHT22;28991;52.028;5.526;2023-09-30T01:06:45;22.30;66.30
40289;DHT22;28991;52.028;5.526;2023-09-30T01:09:12;22.30;66.30
40289;DHT22;28991;52.028;5.526;2023-09-30T01:11:39;22.30;66.30
40289;DHT22;28991;52.028;5.526;2023-09-30T01:14:32;22.30;66.30
40289;DHT22;28991;52.028;5.526;2023-09-30T01:17:00;22.30;66.30
40289;DHT22;28991;52.028;5.526;2023-09-30T01:19:26;22.30;66.30
40289;DHT22;28991;52.028;5.526;2023-09-30T01:21:59;22.50;66.40
40289;DHT22;28991;52.028;5.526;2023-09-30T01:24:26;22.30;66.30
40289;DHT22;28991;52.028;5.526;2023-09-30T01:26:51;22.30;66.30
40289;DHT22;28991;52.028;5.526;2023-09-30T01:29:18;22.30;66.20
40289;DHT22;28991;52.028;5.526;2023-09-30T01:31:43;22.30;66.20
40289;DHT22;28991;52.028;5.526;2023-09-30T01:34:13;22.30;66.30
40289;DHT22;28991;52.028;5.526;2023-09-30T01:36:39;22.30;66.20
40289;DHT22;28991;52.028;5.526;2023-09-30T01:39:04;22.30;66.20
40289;DHT22;28991;52.028;5.526;2023-09-30T01:41:32;22.30;66.20
40289;DHT22;28991;52.028;5.526;2023-09-30T01:43:58;22.30;66.80
40289;DHT22;28991;52.028;5.526;2023-09-30T01:46:23;22.30;66.20
40289;DHT22;28991;52.028;5.526;2023-09-30T01:48:49;22.30;66.20
40289;DHT22;28991;52.028;5.526;2023-09-30T01:51:14;22.30;66.10
40289;DHT22;28991;52.028;5.526;2023-09-30T01:53:40;22.30;66.10
40289;DHT22;28991;52.028;5.526;2023-09-30T01:56:06;22.30;66.10
40289;DHT22;28991;52.028;5.526;2023-09-30T01:58:31;22.20;66.10
40289;DHT22;28991;52.028;5.526;2023-09-30T02:01:03;22.30;66.10
40289;DHT22;28991;52.028;5.526;2023-09-30T02:03:29;22.30;66.10
40289;DHT22;28991;52.028;5.526;2023-09-30T02:05:59;22.30;66.10
40289;DHT22;28991;52.028;5.526;2023-09-30T02:08:33;22.30;66.10
40289;DHT22;28991;52.028;5.526;2023-09-30T02:11:00;22.30;66.10
40289;DHT22;28991;52.028;5.526;2023-09-30T02:13:26;22.20;66.00
40289;DHT22;28991;52.028;5.526;2023-09-30T02:15:52;22.40;66.10
40289;DHT22;28991;52.028;5.526;2023-09-30T02:18:21;22.30;66.10
40289;DHT22;28991;52.028;5.526;2023-09-30T02:20:46;22.30;66.10
40289;DHT22;28991;52.028;5.526;2023-09-30T02:23:12;22.30;66.00
40289;DHT22;28991;52.028;5.526;2023-09-30T02:25:38;22.30;66.10
40289;DHT22;28991;52.028;5.526;2023-09-30T02:28:08;22.30;66.00
40289;DHT22;28991;52.028;5.526;2023-09-30T02:30:34;22.30;66.00
40289;DHT22;28991;52.028;5.526;2023-09-30T02:33:00;22.30;66.00
40289;DHT22;28991;52.028;5.526;2023-09-30T02:35:26;22.30;66.00
40289;DHT22;28991;52.028;5.526;2023-09-30T02:37:52;22.30;66.00
40289;DHT22;28991;52.028;5.526;2023-09-30T02:40:18;22.30;66.00
40289;DHT22;28991;52.028;5.526;2023-09-30T02:42:45;22.20;65.90
40289;DHT22;28991;52.028;5.526;2023-09-30T02:45:11;22.30;66.00
40289;DHT22;28991;52.028;5.526;2023-09-30T02:47:38;22.30;66.00
40289;DHT22;28991;52.028;5.526;2023-09-30T02:50:06;22.30;66.00
40289;DHT22;28991;52.028;5.526;2023-09-30T02:52:41;22.20;65.90
40289;DHT22;28991;52.028;5.526;2023-09-30T02:55:11;22.30;66.00
40289;DHT22;28991;52.028;5.526;2023-09-30T02:57:38;22.30;65.90
40289;DHT22;28991;52.028;5.526;2023-09-30T03:00:04;22.20;65.90
40289;DHT22;28991;52.028;5.526;2023-09-30T03:02:53;22.30;65.90
40289;DHT22;28991;52.028;5.526;2023-09-30T03:05:19;22.20;65.90
40289;DHT22;28991;52.028;5.526;2023-09-30T03:07:45;22.20;65.90
40289;DHT22;28991;52.028;5.526;2023-09-30T03:10:11;22.20;65.80
40289;DHT22;28991;52.028;5.526;2023-09-30T03:12:39;22.20;65.80
40289;DHT22;28991;52.028;5.526;2023-09-30T03:15:05;22.20;65.80
40289;DHT22;28991;52.028;5.526;2023-09-30T03:17:31;22.20;65.80
40289;DHT22;28991;52.028;5.526;2023-09-30T03:19:58;22.20;65.80
40289;DHT22;28991;52.028;5.526;2023-09-30T03:22:25;22.20;65.80
40289;DHT22;28991;52.028;5.526;2023-09-30T03:24:51;22.30;65.90
40289;DHT22;28991;52.028;5.526;2023-09-30T03:27:19;22.20;65.80
40289;DHT22;28991;52.028;5.526;2023-09-30T03:29:45;22.20;65.80
40289;DHT22;28991;52.028;5.526;2023-09-30T03:32:11;22.20;65.80
40289;DHT22;28991;52.028;5.526;2023-09-30T03:34:37;22.20;65.70
40289;DHT22;28991;52.028;5.526;2023-09-30T03:37:02;22.20;65.70
40289;DHT22;28991;52.028;5.526;2023-09-30T03:39:32;22.20;65.70
40289;DHT22;28991;52.028;5.526;2023-09-30T03:41:58;22.20;65.80
40289;DHT22;28991;52.028;5.526;2023-09-30T03:44:24;22.20;65.70
40289;DHT22;28991;52.028;5.526;2023-09-30T03:46:51;22.20;65.70
40289;DHT22;28991;52.028;5.526;2023-09-30T03:49:18;22.20;65.70
40289;DHT22;28991;52.028;5.526;2023-09-30T03:51:45;22.20;65.70
40289;DHT22;28991;52.028;5.526;2023-09-30T03:54:11;22.20;65.70
40289;DHT22;28991;52.028;5.526;2023-09-30T03:56:36;22.30;65.70
40289;DHT22;28991;52.028;5.526;2023-09-30T03:59:04;22.20;65.70
40289;DHT22;28991;52.028;5.526;2023-09-30T04:01:29;22.20;65.70
40289;DHT22;28991;52.028;5.526;2023-09-30T04:03:56;22.20;65.70
40289;DHT22;28991;52.028;5.526;2023-09-30T04:06:22;22.20;65.60
40289;DHT22;28991;52.028;5.526;2023-09-30T04:08:48;22.20;65.60
40289;DHT22;28991;52.028;5.526;2023-09-30T04:11:13;22.10;65.60
40289;DHT22;28991;52.028;5.526;2023-09-30T04:13:44;22.20;65.60
40289;DHT22;28991;52.028;5.526;2023-09-30T04:16:10;22.10;65.60
40289;DHT22;28991;52.028;5.526;2023-09-30T04:18:36;22.20;65.60
40289;DHT22;28991;52.028;5.526;2023-09-30T04:21:02;22.20;65.60
40289;DHT22;28991;52.028;5.526;2023-09-30T04:23:28;22.20;65.60
40289;DHT22;28991;52.028;5.526;2023-09-30T04:25:53;22.20;65.60
40289;DHT22;28991;52.028;5.526;2023-09-30T04:28:19;22.20;65.60
40289;DHT22;28991;52.028;5.526;2023-09-30T04:30:47;22.20;65.60
40289;DHT22;28991;52.028;5.526;2023-09-30T04:33:14;22.20;65.60
40289;DHT22;28991;52.028;5.526;2023-09-30T04:35:40;22.20;65.60
40289;DHT22;28991;52.028;5.526;2023-09-30T04:38:06;22.20;65.60
40289;DHT22;28991;52.028;5.526;2023-09-30T04:40:31;22.20;65.60
40289;DHT22;28991;52.028;5.526;2023-09-30T04:42:58;22.20;65.60
40289;DHT22;28991;52.028;5.526;2023-09-30T04:45:25;22.20;65.60
40289;DHT22;28991;52.028;5.526;2023-09-30T04:47:52;22.20;65.60
40289;DHT22;28991;52.028;5.526;2023-09-30T04:50:18;22.20;65.50
40289;DHT22;28991;52.028;5.526;2023-09-30T04:52:47;22.20;65.50
40289;DHT22;28991;52.028;5.526;2023-09-30T04:55:13;22.20;65.50
40289;DHT22;28991;52.028;5.526;2023-09-30T04:57:42;22.20;65.50
40289;DHT22;28991;52.028;5.526;2023-09-30T05:00:19;22.20;65.50
40289;DHT22;28991;52.028;5.526;2023-09-30T05:02:50;22.20;65.50
40289;DHT22;28991;52.028;5.526;2023-09-30T05:05:16;22.20;65.50
40289;DHT22;28991;52.028;5.526;2023-09-30T05:07:41;22.10;65.40
40289;DHT22;28991;52.028;5.526;2023-09-30T05:10:07;22.20;65.50
40289;DHT22;28991;52.028;5.526;2023-09-30T05:12:38;22.20;65.50
40289;DHT22;28991;52.028;5.526;2023-09-30T05:15:04;22.20;65.50
40289;DHT22;28991;52.028;5.526;2023-09-30T05:17:31;22.20;65.40
40289;DHT22;28991;52.028;5.526;2023-09-30T05:19:57;22.20;65.40
40289;DHT22;28991;52.028;5.526;2023-09-30T05:22:23;22.10;66.00
40289;DHT22;28991;52.028;5.526;2023-09-30T05:24:53;22.20;65.50
40289;DHT22;28991;52.028;5.526;2023-09-30T05:27:19;22.10;65.40
40289;DHT22;28991;52.028;5.526;2023-09-30T05:29:45;22.10;65.40
40289;DHT22;28991;52.028;5.526;2023-09-30T05:32:11;22.10;65.40
40289;DHT22;28991;52.028;5.526;2023-09-30T05:34:36;22.10;65.30
40289;DHT22;28991;52.028;5.526;2023-09-30T05:37:04;22.20;65.40
40289;DHT22;28991;52.028;5.526;2023-09-30T05:39:30;22.10;65.30
40289;DHT22;28991;52.028;5.526;2023-09-30T05:41:57;22.10;65.30
40289;DHT22;28991;52.028;5.526;2023-09-30T05:44:23;22.20;65.40
40289;DHT22;28991;52.028;5.526;2023-09-30T05:46:48;22.20;65.40
40289;DHT22;28991;52.028;5.526;2023-09-30T05:49:15;22.20;65.30
40289;DHT22;28991;52.028;5.526;2023-09-30T05:51:41;22.10;65.90
40289;DHT22;28991;52.028;5.526;2023-09-30T05:54:07;22.20;65.30
40289;DHT22;28991;52.028;5.526;2023-09-30T05:56:38;22.20;65.30
40289;DHT22;28991;52.028;5.526;2023-09-30T05:59:04;22.10;65.20
40289;DHT22;28991;52.028;5.526;2023-09-30T06:01:31;22.20;65.30
40289;DHT22;28991;52.028;5.526;2023-09-30T06:03:58;22.10;65.20
40289;DHT22;28991;52.028;5.526;2023-09-30T06:06:23;22.20;65.80
40289;DHT22;28991;52.028;5.526;2023-09-30T06:08:51;22.10;65.20
40289;DHT22;28991;52.028;5.526;2023-09-30T06:11:23;22.10;65.20
40289;DHT22;28991;52.028;5.526;2023-09-30T06:13:54;22.20;65.20
40289;DHT22;28991;52.028;5.526;2023-09-30T06:16:20;22.20;65.20
40289;DHT22;28991;52.028;5.526;2023-09-30T06:18:46;22.50;65.40
40289;DHT22;28991;52.028;5.526;2023-09-30T06:21:13;22.20;65.30
40289;DHT22;28991;52.028;5.526;2023-09-30T06:23:40;22.20;65.30
40289;DHT22;28991;52.028;5.526;2023-09-30T06:26:06;22.20;65.30
40289;DHT22;28991;52.028;5.526;2023-09-30T06:28:31;22.30;65.30
40289;DHT22;28991;52.028;5.526;2023-09-30T06:30:59;22.30;65.40
40289;DHT22;28991;52.028;5.526;2023-09-30T06:33:28;22.30;65.30
40289;DHT22;28991;52.028;5.526;2023-09-30T06:35:55;22.30;65.30
40289;DHT22;28991;52.028;5.526;2023-09-30T06:38:21;22.50;65.30
40289;DHT22;28991;52.028;5.526;2023-09-30T06:40:47;22.40;65.20
40289;DHT22;28991;52.028;5.526;2023-09-30T06:43:16;22.50;65.20
40289;DHT22;28991;52.028;5.526;2023-09-30T06:45:42;22.40;65.00
40289;DHT22;28991;52.028;5.526;2023-09-30T06:48:09;22.60;65.00
40289;DHT22;28991;52.028;5.526;2023-09-30T06:50:44;22.60;64.90
40289;DHT22;28991;52.028;5.526;2023-09-30T06:53:11;22.60;64.70
40289;DHT22;28991;52.028;5.526;2023-09-30T06:55:40;22.70;64.70
40289;DHT22;28991;52.028;5.526;2023-09-30T06:58:06;22.70;64.50
40289;DHT22;28991;52.028;5.526;2023-09-30T07:00:42;22.80;64.40
40289;DHT22;28991;52.028;5.526;2023-09-30T07:03:07;22.80;64.30
40289;DHT22;28991;52.028;5.526;2023-09-30T07:05:36;22.90;64.00
40289;DHT22;28991;52.028;5.526;2023-09-30T07:08:02;22.90;64.00
40289;DHT22;28991;52.028;5.526;2023-09-30T07:10:28;23.00;63.90
40289;DHT22;28991;52.028;5.526;2023-09-30T07:12:57;23.10;63.80
40289;DHT22;28991;52.028;5.526;2023-09-30T07:15:22;23.10;63.60
40289;DHT22;28991;52.028;5.526;2023-09-30T07:17:48;23.10;63.40
40289;DHT22;28991;52.028;5.526;2023-09-30T07:20:14;23.20;63.30
40289;DHT22;28991;52.028;5.526;2023-09-30T07:22:40;23.20;63.10
40289;DHT22;28991;52.028;5.526;2023-09-30T07:25:07;23.30;63.00
40289;DHT22;28991;52.028;5.526;2023-09-30T07:27:33;23.30;62.90
40289;DHT22;28991;52.028;5.526;2023-09-30T07:29:59;23.30;62.70
40289;DHT22;28991;52.028;5.526;2023-09-30T07:32:25;23.40;62.60
40289;DHT22;28991;52.028;5.526;2023-09-30T07:34:51;23.50;62.50
40289;DHT22;28991;52.028;5.526;2023-09-30T07:37:17;23.50;62.30
40289;DHT22;28991;52.028;5.526;2023-09-30T07:39:46;23.50;62.20
40289;DHT22;28991;52.028;5.526;2023-09-30T07:42:11;23.60;62.10
40289;DHT22;28991;52.028;5.526;2023-09-30T07:44:37;23.60;62.00
40289;DHT22;28991;52.028;5.526;2023-09-30T07:47:04;23.60;61.80
40289;DHT22;28991;52.028;5.526;2023-09-30T07:49:32;23.60;61.70
40289;DHT22;28991;52.028;5.526;2023-09-30T07:51:58;23.70;61.70
40289;DHT22;28991;52.028;5.526;2023-09-30T07:54:24;23.70;61.60
40289;DHT22;28991;52.028;5.526;2023-09-30T07:56:50;23.70;61.40
40289;DHT22;28991;52.028;5.526;2023-09-30T07:59:15;23.80;61.40
40289;DHT22;28991;52.028;5.526;2023-09-30T08:01:41;23.80;61.30
40289;DHT22;28991;52.028;5.526;2023-09-30T08:04:07;23.80;61.20
40289;DHT22;28991;52.028;5.526;2023-09-30T08:06:32;23.80;61.10
40289;DHT22;28991;52.028;5.526;2023-09-30T08:08:58;23.80;61.00
40289;DHT22;28991;52.028;5.526;2023-09-30T08:11:24;23.80;60.90
40289;DHT22;28991;52.028;5.526;2023-09-30T08:13:53;23.80;60.90
40289;DHT22;28991;52.028;5.526;2023-09-30T08:16:19;23.80;60.80
40289;DHT22;28991;52.028;5.526;2023-09-30T08:18:45;23.80;60.70
40289;DHT22;28991;52.028;5.526;2023-09-30T08:21:11;23.90;60.70
40289;DHT22;28991;52.028;5.526;2023-09-30T08:23:37;23.90;60.60
40289;DHT22;28991;52.028;5.526;2023-09-30T08:26:04;23.90;60.60
40289;DHT22;28991;52.028;5.526;2023-09-30T08:28:31;23.90;60.50
40289;DHT22;28991;52.028;5.526;2023-09-30T08:31:02;24.00;60.50
40289;DHT22;28991;52.028;5.526;2023-09-30T08:33:28;24.00;60.40
40289;DHT22;28991;52.028;5.526;2023-09-30T08:35:56;24.00;60.40
40289;DHT22;28991;52.028;5.526;2023-09-30T08:38:23;24.00;60.30
40289;DHT22;28991;52.028;5.526;2023-09-30T08:40:52;24.00;60.30
40289;DHT22;28991;52.028;5.526;2023-09-30T08:43:21;24.00;60.20
40289;DHT22;28991;52.028;5.526;2023-09-30T08:45:53;24.10;60.20
40289;DHT22;28991;52.028;5.526;2023-09-30T08:48:20;24.10;60.20
40289;DHT22;28991;52.028;5.526;2023-09-30T08:50:46;24.10;60.10
40289;DHT22;28991;52.028;5.526;2023-09-30T08:53:15;24.10;60.00
40289;DHT22;28991;52.028;5.526;2023-09-30T08:55:41;24.00;59.90
40289;DHT22;28991;52.028;5.526;2023-09-30T08:58:09;24.10;59.80
40289;DHT22;28991;52.028;5.526;2023-09-30T09:00:34;24.20;59.80
40289;DHT22;28991;52.028;5.526;2023-09-30T09:03:00;24.20;59.80
40289;DHT22;28991;52.028;5.526;2023-09-30T09:05:25;24.20;59.70
40289;DHT22;28991;52.028;5.526;2023-09-30T09:07:51;24.20;59.60
40289;DHT22;28991;52.028;5.526;2023-09-30T09:10:17;24.20;59.60
40289;DHT22;28991;52.028;5.526;2023-09-30T09:12:42;24.20;59.50
40289;DHT22;28991;52.028;5.526;2023-09-30T09:15:20;24.30;59.50
40289;DHT22;28991;52.028;5.526;2023-09-30T09:17:47;24.20;59.40
40289;DHT22;28991;52.028;5.526;2023-09-30T09:20:17;24.30;59.40
40289;DHT22;28991;52.028;5.526;2023-09-30T09:22:48;24.20;59.30
40289;DHT22;28991;52.028;5.526;2023-09-30T09:25:15;24.30;59.30
40289;DHT22;28991;52.028;5.526;2023-09-30T09:27:40;24.30;59.20
40289;DHT22;28991;52.028;5.526;2023-09-30T09:33:11;24.30;59.10
40289;DHT22;28991;52.028;5.526;2023-09-30T09:35:37;24.40;59.20
40289;DHT22;28991;52.028;5.526;2023-09-30T09:38:04;24.40;59.10
40289;DHT22;28991;52.028;5.526;2023-09-30T09:40:32;24.40;59.00
40289;DHT22;28991;52.028;5.526;2023-09-30T09:42:59;24.40;59.00
40289;DHT22;28991;52.028;5.526;2023-09-30T09:45:30;24.40;59.00
40289;DHT22;28991;52.028;5.526;2023-09-30T09:47:58;24.40;58.90
40289;DHT22;28991;52.028;5.526;2023-09-30T09:50:24;24.50;58.90
40289;DHT22;28991;52.028;5.526;2023-09-30T09:52:54;24.40;58.80
40289;DHT22;28991;52.028;5.526;2023-09-30T09:55:22;24.40;58.90
40289;DHT22;28991;52.028;5.526;2023-09-30T09:57:48;24.40;58.90
40289;DHT22;28991;52.028;5.526;2023-09-30T10:00:22;24.40;58.90
40289;DHT22;28991;52.028;5.526;2023-09-30T10:02:49;24.40;58.80
40289;DHT22;28991;52.028;5.526;2023-09-30T10:05:16;24.40;58.80
40289;DHT22;28991;52.028;5.526;2023-09-30T10:08:03;24.40;58.80
40289;DHT22;28991;52.028;5.526;2023-09-30T10:10:31;24.40;58.80
40289;DHT22;28991;52.028;5.526;2023-09-30T10:13:01;24.40;58.80
40289;DHT22;28991;52.028;5.526;2023-09-30T10:17:57;24.40;58.80
40289;DHT22;28991;52.028;5.526;2023-09-30T10:20:28;24.40;58.70
40289;DHT22;28991;52.028;5.526;2023-09-30T10:25:44;24.40;58.70
40289;DHT22;28991;52.028;5.526;2023-09-30T10:28:32;24.40;58.70
40289;DHT22;28991;52.028;5.526;2023-09-30T10:31:20;24.40;58.60
40289;DHT22;28991;52.028;5.526;2023-09-30T10:36:35;24.40;58.60
40289;DHT22;28991;52.028;5.526;2023-09-30T10:39:02;24.40;58.60
40289;DHT22;28991;52.028;5.526;2023-09-30T10:49:46;24.40;58.60
40289;DHT22;28991;52.028;5.526;2023-09-30T10:52:21;24.30;58.60
40289;DHT22;28991;52.028;5.526;2023-09-30T10:54:49;24.30;58.60
40289;DHT22;28991;52.028;5.526;2023-09-30T10:57:26;24.30;58.70
40289;DHT22;28991;52.028;5.526;2023-09-30T11:00:12;24.30;58.70
40289;DHT22;28991;52.028;5.526;2023-09-30T11:02:51;24.30;58.70
40289;DHT22;28991;52.028;5.526;2023-09-30T11:05:18;24.30;58.80
40289;DHT22;28991;52.028;5.526;2023-09-30T11:07:48;24.30;58.80
40289;DHT22;28991;52.028;5.526;2023-09-30T11:10:17;24.30;58.70
40289;DHT22;28991;52.028;5.526;2023-09-30T11:12:56;24.30;58.70
40289;DHT22;28991;52.028;5.526;2023-09-30T11:15:23;24.30;58.70
40289;DHT22;28991;52.028;5.526;2023-09-30T11:17:49;24.30;58.70
40289;DHT22;28991;52.028;5.526;2023-09-30T11:20:16;24.30;58.60
40289;DHT22;28991;52.028;5.526;2023-09-30T11:22:43;24.30;58.60
40289;DHT22;28991;52.028;5.526;2023-09-30T11:25:16;24.30;58.60
40289;DHT22;28991;52.028;5.526;2023-09-30T11:27:43;24.30;58.60
40289;DHT22;28991;52.028;5.526;2023-09-30T11:30:09;24.30;58.60
40289;DHT22;28991;52.028;5.526;2023-09-30T11:32:38;24.30;58.60
40289;DHT22;28991;52.028;5.526;2023-09-30T11:35:09;24.30;58.70
40289;DHT22;28991;52.028;5.526;2023-09-30T11:37:35;24.30;58.60
40289;DHT22;28991;52.028;5.526;2023-09-30T11:40:14;24.20;58.70
40289;DHT22;28991;52.028;5.526;2023-09-30T11:42:39;24.20;58.70
40289;DHT22;28991;52.028;5.526;2023-09-30T11:45:19;24.30;58.80
40289;DHT22;28991;52.028;5.526;2023-09-30T11:47:46;24.20;58.80
40289;DHT22;28991;52.028;5.526;2023-09-30T11:50:11;24.30;58.90
40289;DHT22;28991;52.028;5.526;2023-09-30T11:52:38;24.20;58.90
40289;DHT22;28991;52.028;5.526;2023-09-30T11:55:06;24.20;58.90
40289;DHT22;28991;52.028;5.526;2023-09-30T11:57:31;24.10;58.90
40289;DHT22;28991;52.028;5.526;2023-09-30T12:00:00;24.10;59.00
40289;DHT22;28991;52.028;5.526;2023-09-30T12:02:25;24.10;59.00
40289;DHT22;28991;52.028;5.526;2023-09-30T12:04:52;24.10;59.10
40289;DHT22;28991;52.028;5.526;2023-09-30T12:07:18;24.10;59.10
40289;DHT22;28991;52.028;5.526;2023-09-30T12:09:44;24.00;59.10
40289;DHT22;28991;52.028;5.526;2023-09-30T12:12:10;24.00;59.20
40289;DHT22;28991;52.028;5.526;2023-09-30T12:14:36;24.00;59.20
40289;DHT22;28991;52.028;5.526;2023-09-30T12:17:01;24.10;59.30
40289;DHT22;28991;52.028;5.526;2023-09-30T12:19:27;24.00;59.30
40289;DHT22;28991;52.028;5.526;2023-09-30T12:21:53;24.00;59.40
40289;DHT22;28991;52.028;5.526;2023-09-30T12:24:18;23.90;59.40
40289;DHT22;28991;52.028;5.526;2023-09-30T12:26:50;23.90;59.40
40289;DHT22;28991;52.028;5.526;2023-09-30T12:29:21;23.90;59.40
40289;DHT22;28991;52.028;5.526;2023-09-30T12:31:49;23.90;59.50
40289;DHT22;28991;52.028;5.526;2023-09-30T12:34:15;23.90;59.50
40289;DHT22;28991;52.028;5.526;2023-09-30T12:36:41;23.80;59.50
40289;DHT22;28991;52.028;5.526;2023-09-30T12:39:08;23.80;59.50
40289;DHT22;28991;52.028;5.526;2023-09-30T12:41:40;23.80;59.60
40289;DHT22;28991;52.028;5.526;2023-09-30T12:44:10;23.80;59.60
40289;DHT22;28991;52.028;5.526;2023-09-30T12:46:37;23.80;59.60
40289;DHT22;28991;52.028;5.526;2023-09-30T12:49:08;23.80;59.70
40289;DHT22;28991;52.028;5.526;2023-09-30T12:51:35;23.80;59.70
40289;DHT22;28991;52.028;5.526;2023-09-30T12:54:04;23.70;59.70
40289;DHT22;28991;52.028;5.526;2023-09-30T12:56:30;23.70;59.80
40289;DHT22;28991;52.028;5.526;2023-09-30T12:58:56;23.70;59.80
40289;DHT22;28991;52.028;5.526;2023-09-30T13:01:21;23.70;59.90
40289;DHT22;28991;52.028;5.526;2023-09-30T13:03:48;23.70;59.90
40289;DHT22;28991;52.028;5.526;2023-09-30T13:06:14;23.70;59.90
40289;DHT22;28991;52.028;5.526;2023-09-30T13:08:41;23.70;59.90
40289;DHT22;28991;52.028;5.526;2023-09-30T13:11:07;23.70;59.90
40289;DHT22;28991;52.028;5.526;2023-09-30T13:13:33;23.70;60.00
40289;DHT22;28991;52.028;5.526;2023-09-30T13:15:59;23.70;60.00
40289;DHT22;28991;52.028;5.526;2023-09-30T13:18:25;23.60;59.90
40289;DHT22;28991;52.028;5.526;2023-09-30T13:20:51;23.70;60.00
40289;DHT22;28991;52.028;5.526;2023-09-30T13:23:18;23.60;60.00
40289;DHT22;28991;52.028;5.526;2023-09-30T13:25:44;23.60;60.00
40289;DHT22;28991;52.028;5.526;2023-09-30T13:28:09;23.80;60.10
40289;DHT22;28991;52.028;5.526;2023-09-30T13:30:35;23.60;60.00
40289;DHT22;28991;52.028;5.526;2023-09-30T13:33:01;23.60;60.10
40289;DHT22;28991;52.028;5.526;2023-09-30T13:35:27;23.60;60.10
40289;DHT22;28991;52.028;5.526;2023-09-30T13:37:52;23.60;60.10
40289;DHT22;28991;52.028;5.526;2023-09-30T13:40:18;23.60;60.10
40289;DHT22;28991;52.028;5.526;2023-09-30T13:42:44;23.60;60.10
40289;DHT22;28991;52.028;5.526;2023-09-30T13:45:10;23.60;60.10
40289;DHT22;28991;52.028;5.526;2023-09-30T13:47:36;23.60;60.10
40289;DHT22;28991;52.028;5.526;2023-09-30T13:50:02;23.60;60.20
40289;DHT22;28991;52.028;5.526;2023-09-30T13:52:29;23.60;60.20
40289;DHT22;28991;52.028;5.526;2023-09-30T13:54:55;23.60;60.20
40289;DHT22;28991;52.028;5.526;2023-09-30T13:57:21;23.60;60.20
40289;DHT22;28991;52.028;5.526;2023-09-30T13:59:46;23.50;60.10
40289;DHT22;28991;52.028;5.526;2023-09-30T14:02:12;23.60;60.20
40289;DHT22;28991;52.028;5.526;2023-09-30T14:04:38;23.60;60.20
40289;DHT22;28991;52.028;5.526;2023-09-30T14:07:04;23.60;60.20
40289;DHT22;28991;52.028;5.526;2023-09-30T14:09:31;23.60;60.30
40289;DHT22;28991;52.028;5.526;2023-09-30T14:11:56;23.50;60.20
40289;DHT22;28991;52.028;5.526;2023-09-30T14:14:24;23.60;60.30
40289;DHT22;28991;52.028;5.526;2023-09-30T14:16:50;23.50;60.20
40289;DHT22;28991;52.028;5.526;2023-09-30T14:19:15;23.60;60.30
40289;DHT22;28991;52.028;5.526;2023-09-30T14:21:41;23.50;60.30
40289;DHT22;28991;52.028;5.526;2023-09-30T14:24:07;23.50;60.30
40289;DHT22;28991;52.028;5.526;2023-09-30T14:26:33;23.60;60.30
40289;DHT22;28991;52.028;5.526;2023-09-30T14:28:59;23.60;60.40
40289;DHT22;28991;52.028;5.526;2023-09-30T14:31:25;23.50;60.30
40289;DHT22;28991;52.028;5.526;2023-09-30T14:33:51;23.50;60.30
40289;DHT22;28991;52.028;5.526;2023-09-30T14:36:17;23.60;60.40
40289;DHT22;28991;52.028;5.526;2023-09-30T14:38:44;23.50;60.30
40289;DHT22;28991;52.028;5.526;2023-09-30T14:41:12;23.50;60.30
40289;DHT22;28991;52.028;5.526;2023-09-30T14:43:38;23.60;60.40
40289;DHT22;28991;52.028;5.526;2023-09-30T14:46:04;23.50;60.30
40289;DHT22;28991;52.028;5.526;2023-09-30T14:48:30;23.50;60.30
40289;DHT22;28991;52.028;5.526;2023-09-30T14:50:56;23.50;60.30
40289;DHT22;28991;52.028;5.526;2023-09-30T14:53:23;23.50;60.40
40289;DHT22;28991;52.028;5.526;2023-09-30T14:55:49;23.50;60.40
40289;DHT22;28991;52.028;5.526;2023-09-30T14:58:14;23.50;60.40
40289;DHT22;28991;52.028;5.526;2023-09-30T15:00:40;23.50;60.40
40289;DHT22;28991;52.028;5.526;2023-09-30T15:03:05;23.50;60.40
40289;DHT22;28991;52.028;5.526;2023-09-30T15:05:34;23.50;60.40
40289;DHT22;28991;52.028;5.526;2023-09-30T15:08:01;23.50;60.40
40289;DHT22;28991;52.028;5.526;2023-09-30T15:10:29;23.50;60.40
40289;DHT22;28991;52.028;5.526;2023-09-30T15:12:55;23.50;60.40
40289;DHT22;28991;52.028;5.526;2023-09-30T15:15:23;23.50;60.40
40289;DHT22;28991;52.028;5.526;2023-09-30T15:17:48;23.50;60.40
40289;DHT22;28991;52.028;5.526;2023-09-30T15:20:14;23.50;60.40
40289;DHT22;28991;52.028;5.526;2023-09-30T15:22:39;23.50;60.40
40289;DHT22;28991;52.028;5.526;2023-09-30T15:25:06;23.50;60.50
40289;DHT22;28991;52.028;5.526;2023-09-30T15:27:32;23.50;60.40
40289;DHT22;28991;52.028;5.526;2023-09-30T15:30:00;23.50;60.40
40289;DHT22;28991;52.028;5.526;2023-09-30T15:32:26;23.50;60.40
40289;DHT22;28991;52.028;5.526;2023-09-30T15:34:51;23.40;60.40
40289;DHT22;28991;52.028;5.526;2023-09-30T15:37:17;23.50;60.50
40289;DHT22;28991;52.028;5.526;2023-09-30T15:39:43;23.40;61.00
40289;DHT22;28991;52.028;5.526;2023-09-30T15:42:09;23.50;60.50
40289;DHT22;28991;52.028;5.526;2023-09-30T15:44:37;23.50;60.50
40289;DHT22;28991;52.028;5.526;2023-09-30T15:47:05;23.40;60.50
40289;DHT22;28991;52.028;5.526;2023-09-30T15:49:32;23.40;60.50